createdAt,value
2018-07-11T00:00:35.083Z,0
2018-07-11T00:01:43.737Z,0
2018-07-11T00:02:52.640Z,0
2018-07-11T00:04:01.283Z,0
2018-07-11T00:05:09.924Z,0
2018-07-11T00:06:18.833Z,0
2018-07-11T00:07:27.742Z,0
2018-07-11T00:08:36.387Z,0
2018-07-11T00:09:45.032Z,0
2018-07-11T00:10:53.669Z,0
2018-07-11T00:12:02.319Z,0
2018-07-11T00:13:10.962Z,0
2018-07-11T00:14:19.606Z,0
2018-07-11T00:15:28.513Z,0
2018-07-11T00:16:37.162Z,0
2018-07-11T00:17:45.804Z,0
2018-07-11T00:18:54.452Z,0
2018-07-11T00:20:03.092Z,0
2018-07-11T00:21:11.737Z,0
2018-07-11T00:22:20.383Z,0
2018-07-11T00:23:29.027Z,0
2018-07-11T00:24:37.677Z,0
2018-07-11T00:25:46.315Z,0
2018-07-11T00:26:54.961Z,0
2018-07-11T00:28:03.603Z,0
2018-07-11T00:29:12.250Z,0
2018-07-11T00:30:20.890Z,0
2018-07-11T00:31:29.534Z,0
2018-07-11T00:32:38.176Z,0
2018-07-11T00:33:46.824Z,0
2018-07-11T00:34:55.473Z,0
2018-07-11T00:36:04.121Z,0
2018-07-11T00:37:13.457Z,0
2018-07-11T00:38:22.282Z,0
2018-07-11T00:39:30.922Z,0
2018-07-11T00:40:39.569Z,0
2018-07-11T00:41:48.214Z,0
2018-07-11T00:42:56.856Z,0
2018-07-11T00:44:05.506Z,0
2018-07-11T00:45:14.414Z,0
2018-07-11T00:46:23.056Z,0
2018-07-11T00:47:31.694Z,0
2018-07-11T00:48:40.343Z,0
2018-07-11T00:49:48.981Z,0
2018-07-11T00:50:57.886Z,0
2018-07-11T00:52:06.809Z,0
2018-07-11T00:53:15.448Z,0
2018-07-11T00:54:24.091Z,0
2018-07-11T00:55:32.736Z,0
2018-07-11T00:56:41.388Z,0
2018-07-11T00:57:50.031Z,0
2018-07-11T00:58:58.671Z,0
2018-07-11T01:00:07.316Z,0
2018-07-11T01:01:15.958Z,0
2018-07-11T01:02:24.612Z,0
2018-07-11T01:03:33.253Z,0
2018-07-11T01:04:41.901Z,0
2018-07-11T01:05:50.536Z,0
2018-07-11T01:06:59.191Z,0
2018-07-11T01:08:07.831Z,0
2018-07-11T01:09:16.479Z,0
2018-07-11T01:10:25.115Z,0
2018-07-11T01:11:33.771Z,0
2018-07-11T01:12:42.412Z,0
2018-07-11T01:13:51.060Z,0
2018-07-11T01:14:59.691Z,0
2018-07-11T01:16:08.358Z,0
2018-07-11T01:17:16.981Z,0
2018-07-11T01:18:25.625Z,0
2018-07-11T01:19:34.279Z,0
2018-07-11T01:20:42.918Z,0
2018-07-11T01:21:51.563Z,0
2018-07-11T01:23:00.201Z,0
2018-07-11T01:24:08.851Z,0
2018-07-11T01:25:17.485Z,0
2018-07-11T01:26:26.134Z,0
2018-07-11T01:27:34.768Z,0
2018-07-11T01:28:43.421Z,0
2018-07-11T01:29:52.057Z,0
2018-07-11T01:31:00.702Z,0
2018-07-11T01:32:09.348Z,0
2018-07-11T01:33:18.258Z,0
2018-07-11T01:34:26.905Z,0
2018-07-11T01:35:35.538Z,0
2018-07-11T01:36:44.179Z,0
2018-07-11T01:37:52.820Z,0
2018-07-11T01:39:01.734Z,0
2018-07-11T01:40:10.373Z,0
2018-07-11T01:41:19.019Z,0
2018-07-11T01:42:27.652Z,0
2018-07-11T01:43:36.570Z,0
2018-07-11T01:44:45.211Z,0
2018-07-11T01:45:53.864Z,0
2018-07-11T01:47:02.759Z,0
2018-07-11T01:48:11.411Z,0
2018-07-11T01:49:20.095Z,0
2018-07-11T01:50:28.692Z,0
2018-07-11T01:51:37.330Z,0
2018-07-11T01:52:45.976Z,0
2018-07-11T01:53:54.619Z,0
2018-07-11T01:55:03.265Z,0
2018-07-11T01:56:12.180Z,0
2018-07-11T01:57:20.817Z,0
2018-07-11T01:58:29.459Z,0
2018-07-11T01:59:38.103Z,0
2018-07-11T02:00:47.016Z,0
2018-07-11T02:01:55.649Z,0
2018-07-11T02:03:04.296Z,0
2018-07-11T02:04:13.212Z,0
2018-07-11T02:05:21.857Z,0
2018-07-11T02:06:30.498Z,0
2018-07-11T02:07:39.143Z,0
2018-07-11T02:08:47.781Z,0
2018-07-11T02:09:56.432Z,0
2018-07-11T02:11:05.605Z,0
2018-07-11T02:12:14.248Z,0
2018-07-11T02:13:22.896Z,0
2018-07-11T02:14:31.533Z,0
2018-07-11T02:15:40.178Z,0
2018-07-11T02:16:48.823Z,0
2018-07-11T02:17:57.464Z,0
2018-07-11T02:19:06.102Z,0
2018-07-11T02:20:14.752Z,0
2018-07-11T02:21:23.659Z,0
2018-07-11T02:22:32.302Z,0
2018-07-11T02:23:40.942Z,0
2018-07-11T02:24:49.851Z,0
2018-07-11T02:25:58.492Z,0
2018-07-11T02:27:07.137Z,0
2018-07-11T02:28:15.777Z,0
2018-07-11T02:29:24.420Z,0
2018-07-11T02:30:33.084Z,0
2018-07-11T02:31:41.708Z,0
2018-07-11T02:32:50.358Z,0
2018-07-11T02:33:58.997Z,0
2018-07-11T02:35:07.640Z,0
2018-07-11T02:36:16.288Z,0
2018-07-11T02:37:24.936Z,0
2018-07-11T02:38:33.837Z,0
2018-07-11T02:39:42.478Z,0
2018-07-11T02:40:51.126Z,0
2018-07-11T02:41:59.776Z,0
2018-07-11T02:43:08.695Z,0
2018-07-11T02:44:17.610Z,0
2018-07-11T02:45:26.260Z,0
2018-07-11T02:46:35.175Z,0
2018-07-11T02:47:43.813Z,0
2018-07-11T02:48:52.465Z,0
2018-07-11T02:50:01.114Z,0
2018-07-11T02:51:10.028Z,0
2018-07-11T02:52:18.668Z,0
2018-07-11T02:53:27.316Z,0
2018-07-11T02:54:36.223Z,0
2018-07-11T02:55:45.413Z,0
2018-07-11T02:56:54.575Z,0
2018-07-11T02:58:03.491Z,0
2018-07-11T02:59:12.138Z,0
2018-07-11T03:00:20.788Z,0
2018-07-11T03:01:29.426Z,0
2018-07-11T03:02:38.071Z,0
2018-07-11T03:03:46.761Z,0
2018-07-11T03:04:55.554Z,0
2018-07-11T03:06:04.189Z,0
2018-07-11T03:07:12.832Z,0
2018-07-11T03:08:21.471Z,0
2018-07-11T03:09:30.114Z,0
2018-07-11T03:10:39.030Z,0
2018-07-11T03:11:47.939Z,0
2018-07-11T03:12:56.585Z,0
2018-07-11T03:14:05.223Z,0
2018-07-11T03:15:13.878Z,0
2018-07-11T03:16:22.788Z,0
2018-07-11T03:17:31.437Z,0
2018-07-11T03:18:40.342Z,0
2018-07-11T03:19:48.990Z,5
2018-07-11T03:20:57.904Z,5
2018-07-11T03:22:06.548Z,5
2018-07-11T03:23:15.185Z,5
2018-07-11T03:24:23.831Z,5
2018-07-11T03:25:32.478Z,5
2018-07-11T03:26:41.392Z,5
2018-07-11T03:27:50.035Z,5
2018-07-11T03:28:58.673Z,5
2018-07-11T03:30:07.330Z,5
2018-07-11T03:31:16.271Z,5
2018-07-11T03:32:24.981Z,5
2018-07-11T03:33:33.819Z,10
2018-07-11T03:34:42.460Z,10
2018-07-11T03:35:51.102Z,10
2018-07-11T03:36:59.747Z,10
2018-07-11T03:38:08.385Z,10
2018-07-11T03:39:17.030Z,10
2018-07-11T03:40:25.667Z,10
2018-07-11T03:41:34.315Z,10
2018-07-11T03:42:42.956Z,10
2018-07-11T03:43:51.598Z,15
2018-07-11T03:45:00.241Z,15
2018-07-11T03:46:09.140Z,15
2018-07-11T03:47:17.785Z,15
2018-07-11T03:48:26.427Z,15
2018-07-11T03:49:35.074Z,15
2018-07-11T03:50:43.708Z,15
2018-07-11T03:51:52.358Z,15
2018-07-11T03:53:01.004Z,20
2018-07-11T03:54:09.644Z,20
2018-07-11T03:55:18.540Z,20
2018-07-11T03:56:27.456Z,20
2018-07-11T03:57:36.357Z,20
2018-07-11T03:58:45.266Z,25
2018-07-11T03:59:53.900Z,25
2018-07-11T04:01:02.542Z,25
2018-07-11T04:02:11.189Z,25
2018-07-11T04:03:20.106Z,30
2018-07-11T04:04:28.751Z,30
2018-07-11T04:05:37.383Z,30
2018-07-11T04:06:46.032Z,30
2018-07-11T04:07:54.679Z,30
2018-07-11T04:09:03.323Z,30
2018-07-11T04:10:11.954Z,30
2018-07-11T04:11:20.602Z,30
2018-07-11T04:12:29.242Z,30
2018-07-11T04:13:37.894Z,30
2018-07-11T04:14:46.528Z,30
2018-07-11T04:15:55.170Z,30
2018-07-11T04:17:03.812Z,30
2018-07-11T04:18:12.460Z,30
2018-07-11T04:19:21.100Z,35
2018-07-11T04:20:29.738Z,35
2018-07-11T04:21:38.646Z,35
2018-07-11T04:22:47.283Z,35
2018-07-11T04:23:55.932Z,35
2018-07-11T04:25:04.566Z,40
2018-07-11T04:26:13.478Z,40
2018-07-11T04:27:22.127Z,40
2018-07-11T04:28:30.761Z,40
2018-07-11T04:29:39.398Z,40
2018-07-11T04:30:48.045Z,45
2018-07-11T04:31:56.676Z,45
2018-07-11T04:33:05.603Z,45
2018-07-11T04:34:14.239Z,45
2018-07-11T04:35:22.889Z,45
2018-07-11T04:36:31.523Z,50
2018-07-11T04:37:40.166Z,50
2018-07-11T04:38:48.820Z,50
2018-07-11T04:39:57.465Z,50
2018-07-11T04:41:06.111Z,50
2018-07-11T04:42:15.012Z,50
2018-07-11T04:43:23.659Z,50
2018-07-11T04:44:32.295Z,50
2018-07-11T04:45:40.950Z,45
2018-07-11T04:46:49.584Z,45
2018-07-11T04:47:58.226Z,45
2018-07-11T04:49:06.865Z,45
2018-07-11T04:50:15.514Z,50
2018-07-11T04:51:24.152Z,50
2018-07-11T04:52:32.849Z,50
2018-07-11T04:53:41.442Z,55
2018-07-11T04:54:50.090Z,60
2018-07-11T04:55:58.735Z,60
2018-07-11T04:57:07.640Z,65
2018-07-11T04:58:16.280Z,65
2018-07-11T04:59:25.189Z,65
2018-07-11T05:00:33.830Z,65
2018-07-11T05:01:42.473Z,65
2018-07-11T05:02:51.112Z,65
2018-07-11T05:03:59.749Z,65
2018-07-11T05:05:08.660Z,70
2018-07-11T05:06:17.568Z,75
2018-07-11T05:07:26.211Z,75
2018-07-11T05:08:34.847Z,75
2018-07-11T05:09:43.492Z,75
2018-07-11T05:10:52.193Z,80
2018-07-11T05:12:00.781Z,80
2018-07-11T05:13:09.421Z,85
2018-07-11T05:14:18.064Z,95
2018-07-11T05:15:26.710Z,100
2018-07-11T05:16:35.357Z,105
2018-07-11T05:17:44.001Z,110
2018-07-11T05:18:52.900Z,110
2018-07-11T05:20:01.548Z,115
2018-07-11T05:21:10.718Z,115
2018-07-11T05:22:19.625Z,115
2018-07-11T05:23:28.264Z,110
2018-07-11T05:24:36.910Z,110
2018-07-11T05:25:45.553Z,110
2018-07-11T05:26:54.202Z,110
2018-07-11T05:28:02.839Z,115
2018-07-11T05:29:11.487Z,115
2018-07-11T05:30:20.127Z,90
2018-07-11T05:31:28.778Z,90
2018-07-11T05:32:37.418Z,100
2018-07-11T05:33:46.057Z,100
2018-07-11T05:34:54.697Z,130
2018-07-11T05:36:03.615Z,130
2018-07-11T05:37:12.256Z,125
2018-07-11T05:38:20.901Z,125
2018-07-11T05:39:29.544Z,130
2018-07-11T05:40:38.182Z,135
2018-07-11T05:41:46.831Z,140
2018-07-11T05:42:55.474Z,140
2018-07-11T05:44:04.122Z,145
2018-07-11T05:45:12.756Z,145
2018-07-11T05:46:21.411Z,130
2018-07-11T05:47:30.053Z,130
2018-07-11T05:48:38.700Z,135
2018-07-11T05:49:47.331Z,145
2018-07-11T05:50:55.978Z,155
2018-07-11T05:52:04.671Z,165
2018-07-11T05:53:13.274Z,170
2018-07-11T05:54:21.922Z,165
2018-07-11T05:55:30.554Z,155
2018-07-11T05:56:39.201Z,145
2018-07-11T05:57:47.847Z,135
2018-07-11T05:58:56.498Z,125
2018-07-11T06:00:05.261Z,115
2018-07-11T06:01:13.783Z,110
2018-07-11T06:02:22.422Z,120
2018-07-11T06:03:31.348Z,125
2018-07-11T06:04:39.985Z,130
2018-07-11T06:05:48.892Z,140
2018-07-11T06:06:57.801Z,155
2018-07-11T06:08:06.719Z,180
2018-07-11T06:09:15.360Z,190
2018-07-11T06:10:24.000Z,190
2018-07-11T06:11:32.642Z,180
2018-07-11T06:12:41.282Z,165
2018-07-11T06:13:49.936Z,165
2018-07-11T06:14:58.574Z,175
2018-07-11T06:16:07.230Z,180
2018-07-11T06:17:15.868Z,180
2018-07-11T06:18:24.522Z,165
2018-07-11T06:19:33.162Z,165
2018-07-11T06:20:41.809Z,160
2018-07-11T06:21:50.440Z,160
2018-07-11T06:22:59.093Z,165
2018-07-11T06:24:07.738Z,170
2018-07-11T06:25:16.663Z,175
2018-07-11T06:26:25.303Z,185
2018-07-11T06:27:34.218Z,190
2018-07-11T06:28:42.867Z,210
2018-07-11T06:29:51.515Z,220
2018-07-11T06:31:00.161Z,235
2018-07-11T06:32:08.796Z,245
2018-07-11T06:33:17.458Z,260
2018-07-11T06:34:26.094Z,270
2018-07-11T06:35:34.747Z,275
2018-07-11T06:36:43.546Z,285
2018-07-11T06:37:52.529Z,280
2018-07-11T06:39:01.106Z,270
2018-07-11T06:40:09.760Z,260
2018-07-11T06:41:18.395Z,255
2018-07-11T06:42:27.041Z,245
2018-07-11T06:43:35.698Z,230
2018-07-11T06:44:44.511Z,235
2018-07-11T06:45:53.159Z,250
2018-07-11T06:47:02.086Z,265
2018-07-11T06:48:10.729Z,280
2018-07-11T06:49:19.377Z,290
2018-07-11T06:50:28.276Z,300
2018-07-11T06:51:36.927Z,300
2018-07-11T06:52:45.571Z,305
2018-07-11T06:53:54.493Z,300
2018-07-11T06:55:03.395Z,305
2018-07-11T06:56:12.449Z,285
2018-07-11T06:57:21.076Z,275
2018-07-11T06:58:29.734Z,275
2018-07-11T06:59:38.369Z,250
2018-07-11T07:00:47.017Z,230
2018-07-11T07:01:55.664Z,220
2018-07-11T07:03:04.323Z,220
2018-07-11T07:04:12.966Z,230
2018-07-11T07:05:21.616Z,245
2018-07-11T07:06:30.260Z,255
2018-07-11T07:07:38.906Z,265
2018-07-11T07:08:47.561Z,280
2018-07-11T07:09:56.203Z,295
2018-07-11T07:11:04.939Z,310
2018-07-11T07:12:13.993Z,310
2018-07-11T07:13:22.678Z,310
2018-07-11T07:14:31.321Z,305
2018-07-11T07:15:39.973Z,300
2018-07-11T07:16:48.610Z,295
2018-07-11T07:17:57.265Z,290
2018-07-11T07:19:05.910Z,280
2018-07-11T07:20:14.820Z,265
2018-07-11T07:21:23.482Z,260
2018-07-11T07:22:32.214Z,265
2018-07-11T07:23:40.850Z,270
2018-07-11T07:24:49.513Z,275
2018-07-11T07:25:58.168Z,275
2018-07-11T07:27:06.826Z,275
2018-07-11T07:28:15.503Z,250
2018-07-11T07:29:24.149Z,235
2018-07-11T07:30:32.809Z,230
2018-07-11T07:31:41.717Z,220
2018-07-11T07:32:50.370Z,215
2018-07-11T07:33:59.017Z,205
2018-07-11T07:35:07.673Z,195
2018-07-11T07:36:16.311Z,190
2018-07-11T07:37:24.962Z,190
2018-07-11T07:38:33.608Z,195
2018-07-11T07:39:42.536Z,200
2018-07-11T07:40:51.178Z,205
2018-07-11T07:41:59.826Z,200
2018-07-11T07:43:08.467Z,205
2018-07-11T07:44:17.110Z,215
2018-07-11T07:45:25.763Z,230
2018-07-11T07:46:34.413Z,240
2018-07-11T07:47:43.063Z,255
2018-07-11T07:48:51.968Z,265
2018-07-11T07:50:00.886Z,265
2018-07-11T07:51:09.540Z,265
2018-07-11T07:52:18.178Z,270
2018-07-11T07:53:26.820Z,280
2018-07-11T07:54:35.741Z,275
2018-07-11T07:55:44.386Z,270
2018-07-11T07:56:53.034Z,270
2018-07-11T07:58:01.681Z,270
2018-07-11T07:59:10.331Z,270
2018-07-11T08:00:18.980Z,270
2018-07-11T08:01:27.633Z,275
2018-07-11T08:02:36.545Z,265
2018-07-11T08:03:45.187Z,265
2018-07-11T08:04:53.834Z,270
2018-07-11T08:06:02.482Z,270
2018-07-11T08:07:11.469Z,275
2018-07-11T08:08:20.114Z,275
2018-07-11T08:09:28.760Z,285
2018-07-11T08:10:37.409Z,305
2018-07-11T08:11:46.062Z,325
2018-07-11T08:12:54.705Z,345
2018-07-11T08:14:03.359Z,365
2018-07-11T08:15:12.005Z,370
2018-07-11T08:16:20.698Z,365
2018-07-11T08:17:29.566Z,355
2018-07-11T08:18:38.214Z,335
2018-07-11T08:19:47.396Z,310
2018-07-11T08:20:56.043Z,290
2018-07-11T08:22:04.696Z,300
2018-07-11T08:23:13.346Z,310
2018-07-11T08:24:21.996Z,320
2018-07-11T08:25:30.645Z,325
2018-07-11T08:26:39.297Z,325
2018-07-11T08:27:47.938Z,320
2018-07-11T08:28:56.849Z,315
2018-07-11T08:30:05.491Z,310
2018-07-11T08:31:14.409Z,265
2018-07-11T08:32:23.057Z,255
2018-07-11T08:33:31.708Z,250
2018-07-11T08:34:40.371Z,215
2018-07-11T08:35:49.341Z,205
2018-07-11T08:36:58.252Z,195
2018-07-11T08:38:06.904Z,190
2018-07-11T08:39:15.818Z,165
2018-07-11T08:40:24.464Z,165
2018-07-11T08:41:33.110Z,155
2018-07-11T08:42:41.760Z,140
2018-07-11T08:43:50.420Z,140
2018-07-11T08:44:59.326Z,135
2018-07-11T08:46:07.974Z,130
2018-07-11T08:47:16.622Z,130
2018-07-11T08:48:26.467Z,110
2018-07-11T08:49:35.375Z,85
2018-07-11T08:50:44.028Z,80
2018-07-11T08:51:52.672Z,95
2018-07-11T08:53:01.334Z,95
2018-07-11T08:54:09.980Z,90
2018-07-11T08:55:18.628Z,100
2018-07-11T08:56:27.274Z,110
2018-07-11T08:57:35.921Z,95
2018-07-11T08:58:44.576Z,80
2018-07-11T08:59:53.223Z,60
2018-07-11T09:01:01.870Z,50
2018-07-11T09:02:10.514Z,45
2018-07-11T09:03:19.166Z,35
2018-07-11T09:04:28.885Z,30
2018-07-11T09:05:37.603Z,25
2018-07-11T09:06:46.251Z,25
2018-07-11T09:07:54.925Z,30
2018-07-11T09:09:03.568Z,35
2018-07-11T09:10:12.427Z,45
2018-07-11T09:11:21.075Z,55
2018-07-11T09:12:29.747Z,60
2018-07-11T09:13:38.396Z,75
2018-07-11T09:14:47.063Z,100
2018-07-11T09:15:55.722Z,135
2018-07-11T09:17:04.365Z,160
2018-07-11T09:18:13.012Z,170
2018-07-11T09:19:21.922Z,175
2018-07-11T09:20:30.571Z,175
2018-07-11T09:21:39.214Z,180
2018-07-11T09:22:47.862Z,175
2018-07-11T09:23:56.567Z,170
2018-07-11T09:25:05.168Z,175
2018-07-11T09:26:13.809Z,185
2018-07-11T09:27:22.729Z,200
2018-07-11T09:28:31.376Z,210
2018-07-11T09:29:40.024Z,225
2018-07-11T09:30:48.670Z,240
2018-07-11T09:31:57.316Z,265
2018-07-11T09:33:06.226Z,280
2018-07-11T09:34:15.134Z,295
2018-07-11T09:35:23.784Z,310
2018-07-11T09:36:32.431Z,315
2018-07-11T09:37:41.182Z,320
2018-07-11T09:38:49.724Z,320
2018-07-11T09:39:58.378Z,330
2018-07-11T09:41:07.023Z,330
2018-07-11T09:42:15.681Z,330
2018-07-11T09:43:24.319Z,330
2018-07-11T09:44:32.976Z,315
2018-07-11T09:45:42.063Z,300
2018-07-11T09:46:50.707Z,275
2018-07-11T09:47:59.348Z,265
2018-07-11T09:49:07.998Z,255
2018-07-11T09:50:16.653Z,255
2018-07-11T09:51:25.565Z,250
2018-07-11T09:52:34.216Z,245
2018-07-11T09:53:42.865Z,230
2018-07-11T09:54:51.520Z,210
2018-07-11T09:56:00.167Z,190
2018-07-11T09:57:08.828Z,170
2018-07-11T09:58:17.727Z,170
2018-07-11T09:59:26.379Z,165
2018-07-11T10:00:35.025Z,155
2018-07-11T10:01:43.681Z,140
2018-07-11T10:02:52.320Z,140
2018-07-11T10:04:00.971Z,145
2018-07-11T10:05:09.897Z,140
2018-07-11T10:06:18.550Z,135
2018-07-11T10:07:27.198Z,140
2018-07-11T10:08:35.848Z,160
2018-07-11T10:09:44.495Z,185
2018-07-11T10:10:53.139Z,195
2018-07-11T10:12:01.879Z,215
2018-07-11T10:13:10.442Z,230
2018-07-11T10:14:19.097Z,225
2018-07-11T10:15:27.734Z,185
2018-07-11T10:16:36.391Z,155
2018-07-11T10:17:45.038Z,135
2018-07-11T10:18:53.689Z,135
2018-07-11T10:20:02.327Z,160
2018-07-11T10:21:10.986Z,195
2018-07-11T10:22:19.636Z,245
2018-07-11T10:23:28.282Z,285
2018-07-11T10:24:36.921Z,290
2018-07-11T10:25:45.570Z,270
2018-07-11T10:26:54.226Z,220
2018-07-11T10:28:02.879Z,185
2018-07-11T10:29:11.791Z,165
2018-07-11T10:30:20.431Z,165
2018-07-11T10:31:29.348Z,155
2018-07-11T10:32:37.996Z,130
2018-07-11T10:33:47.035Z,105
2018-07-11T10:34:55.670Z,95
2018-07-11T10:36:04.324Z,110
2018-07-11T10:37:12.967Z,130
2018-07-11T10:38:21.611Z,155
2018-07-11T10:39:30.268Z,190
2018-07-11T10:40:38.917Z,200
2018-07-11T10:41:47.568Z,225
2018-07-11T10:42:56.206Z,260
2018-07-11T10:44:05.122Z,290
2018-07-11T10:45:13.780Z,295
2018-07-11T10:46:22.432Z,315
2018-07-11T10:47:31.086Z,345
2018-07-11T10:48:40.245Z,360
2018-07-11T10:49:48.898Z,355
2018-07-11T10:50:57.548Z,360
2018-07-11T10:52:06.205Z,335
2018-07-11T10:53:14.844Z,310
2018-07-11T10:54:23.498Z,260
2018-07-11T10:55:32.142Z,215
2018-07-11T10:56:41.064Z,150
2018-07-11T10:57:49.811Z,105
2018-07-11T10:58:58.618Z,95
2018-07-11T11:00:07.260Z,95
2018-07-11T11:01:16.057Z,100
2018-07-11T11:02:24.565Z,115
2018-07-11T11:03:33.447Z,125
2018-07-11T11:04:42.741Z,115
2018-07-11T11:05:51.395Z,100
2018-07-11T11:07:00.095Z,95
2018-07-11T11:08:08.827Z,85
2018-07-11T11:09:17.483Z,75
2018-07-11T11:10:26.159Z,85
2018-07-11T11:11:35.124Z,85
2018-07-11T11:12:43.772Z,85
2018-07-11T11:13:52.796Z,85
2018-07-11T11:15:01.448Z,60
2018-07-11T11:16:10.100Z,50
2018-07-11T11:17:18.771Z,35
2018-07-11T11:18:27.477Z,25
2018-07-11T11:19:38.935Z,25
2018-07-11T11:20:47.913Z,30
2018-07-11T11:21:56.608Z,35
2018-07-11T11:23:05.289Z,55
2018-07-11T11:24:13.968Z,85
2018-07-11T11:25:22.884Z,95
2018-07-11T11:26:31.554Z,100
2018-07-11T11:27:40.244Z,105
2018-07-11T11:28:48.967Z,115
2018-07-11T11:29:57.601Z,105
2018-07-11T11:31:06.253Z,105
2018-07-11T11:32:15.160Z,85
2018-07-11T11:33:24.083Z,65
2018-07-11T11:34:32.718Z,45
2018-07-11T11:35:41.403Z,55
2018-07-11T11:36:50.018Z,55
2018-07-11T11:37:58.669Z,65
2018-07-11T11:39:07.314Z,80
2018-07-11T11:40:15.961Z,80
2018-07-11T11:41:24.623Z,115
2018-07-11T11:42:33.494Z,160
2018-07-11T11:43:41.905Z,190
2018-07-11T11:44:50.552Z,210
2018-07-11T11:45:59.197Z,210
2018-07-11T11:47:07.838Z,185
2018-07-11T11:48:16.490Z,155
2018-07-11T11:49:25.135Z,150
2018-07-11T11:50:33.783Z,150
2018-07-11T11:51:42.425Z,140
2018-07-11T11:52:51.089Z,130
2018-07-11T11:54:00.032Z,115
2018-07-11T11:55:08.938Z,110
2018-07-11T11:56:17.844Z,110
2018-07-11T11:57:26.504Z,115
2018-07-11T11:58:35.878Z,115
2018-07-11T11:59:44.439Z,110
2018-07-11T12:00:53.158Z,115
2018-07-11T12:02:01.804Z,125
2018-07-11T12:03:10.720Z,135
2018-07-11T12:04:19.366Z,140
2018-07-11T12:05:28.017Z,140
2018-07-11T12:06:36.658Z,145
2018-07-11T12:07:45.303Z,155
2018-07-11T12:08:53.944Z,160
2018-07-11T12:10:02.736Z,155
2018-07-11T12:11:11.379Z,155
2018-07-11T12:12:20.030Z,160
2018-07-11T12:13:28.678Z,155
2018-07-11T12:14:37.602Z,145
2018-07-11T12:15:46.251Z,125
2018-07-11T12:16:55.164Z,120
2018-07-11T12:18:03.812Z,120
2018-07-11T12:19:12.461Z,125
2018-07-11T12:20:21.112Z,130
2018-07-11T12:21:29.802Z,140
2018-07-11T12:22:38.407Z,140
2018-07-11T12:23:47.094Z,145
2018-07-11T12:24:55.702Z,150
2018-07-11T12:26:04.349Z,160
2018-07-11T12:27:13.000Z,165
2018-07-11T12:28:21.642Z,175
2018-07-11T12:29:30.293Z,180
2018-07-11T12:30:38.939Z,170
2018-07-11T12:31:47.590Z,160
2018-07-11T12:32:56.235Z,150
2018-07-11T12:34:04.884Z,145
2018-07-11T12:35:13.533Z,135
2018-07-11T12:36:22.449Z,125
2018-07-11T12:37:31.101Z,115
2018-07-11T12:38:39.735Z,100
2018-07-11T12:39:48.388Z,100
2018-07-11T12:40:57.032Z,100
2018-07-11T12:42:05.689Z,95
2018-07-11T12:43:14.859Z,80
2018-07-11T12:44:23.511Z,80
2018-07-11T12:45:32.151Z,75
2018-07-11T12:46:41.066Z,60
2018-07-11T12:47:49.968Z,40
2018-07-11T12:48:58.620Z,60
2018-07-11T12:50:07.267Z,65
2018-07-11T12:51:15.968Z,60
2018-07-11T12:52:24.572Z,75
2018-07-11T12:53:33.213Z,75
2018-07-11T12:54:41.857Z,75
2018-07-11T12:55:50.502Z,60
2018-07-11T12:56:59.159Z,65
2018-07-11T12:58:07.806Z,80
2018-07-11T12:59:16.455Z,75
2018-07-11T13:00:25.098Z,75
2018-07-11T13:01:33.753Z,70
2018-07-11T13:02:42.395Z,60
2018-07-11T13:03:51.311Z,50
2018-07-11T13:04:59.953Z,35
2018-07-11T13:06:09.136Z,20
2018-07-11T13:07:17.781Z,30
2018-07-11T13:08:26.712Z,35
2018-07-11T13:09:35.323Z,45
2018-07-11T13:10:43.975Z,45
2018-07-11T13:11:52.627Z,60
2018-07-11T13:13:01.275Z,80
2018-07-11T13:14:10.194Z,85
2018-07-11T13:15:18.835Z,75
2018-07-11T13:16:27.499Z,85
2018-07-11T13:17:36.126Z,85
2018-07-11T13:18:45.303Z,70
2018-07-11T13:19:53.943Z,70
2018-07-11T13:21:02.613Z,70
2018-07-11T13:22:11.234Z,70
2018-07-11T13:23:19.890Z,65
2018-07-11T13:24:28.526Z,55
2018-07-11T13:25:37.298Z,60
2018-07-11T13:26:45.822Z,60
2018-07-11T13:27:54.479Z,60
2018-07-11T13:29:03.117Z,65
2018-07-11T13:30:11.761Z,75
2018-07-11T13:31:20.404Z,110
2018-07-11T13:32:29.047Z,170
2018-07-11T13:33:37.702Z,225
2018-07-11T13:34:46.348Z,250
2018-07-11T13:35:54.996Z,260
2018-07-11T13:37:03.635Z,250
2018-07-11T13:38:12.310Z,265
2018-07-11T13:39:20.932Z,280
2018-07-11T13:40:29.841Z,290
2018-07-11T13:41:38.747Z,300
2018-07-11T13:42:47.399Z,340
2018-07-11T13:43:56.300Z,360
2018-07-11T13:45:04.949Z,375
2018-07-11T13:46:13.596Z,370
2018-07-11T13:47:22.243Z,365
2018-07-11T13:48:30.890Z,360
2018-07-11T13:49:39.539Z,370
2018-07-11T13:50:48.190Z,360
2018-07-11T13:51:56.831Z,365
2018-07-11T13:53:05.478Z,340
2018-07-11T13:54:14.126Z,320
2018-07-11T13:55:22.777Z,290
2018-07-11T13:56:31.687Z,280
2018-07-11T13:57:40.334Z,270
2018-07-11T13:58:48.982Z,275
2018-07-11T13:59:57.632Z,265
2018-07-11T14:01:06.281Z,180
2018-07-11T14:02:14.927Z,180
2018-07-11T14:03:23.573Z,165
2018-07-11T14:04:32.226Z,180
2018-07-11T14:05:41.135Z,215
2018-07-11T14:06:49.782Z,215
2018-07-11T14:07:58.428Z,220
2018-07-11T14:09:07.076Z,210
2018-07-11T14:10:15.727Z,245
2018-07-11T14:11:24.374Z,245
2018-07-11T14:12:33.292Z,265
2018-07-11T14:13:41.935Z,275
2018-07-11T14:14:50.589Z,315
2018-07-11T14:15:59.236Z,330
2018-07-11T14:17:08.148Z,345
2018-07-11T14:18:16.792Z,355
2018-07-11T14:19:25.590Z,380
2018-07-11T14:20:34.090Z,410
2018-07-11T14:21:42.743Z,390
2018-07-11T14:22:51.385Z,435
2018-07-11T14:24:00.309Z,375
2018-07-11T14:25:08.966Z,345
2018-07-11T14:26:17.617Z,360
2018-07-11T14:27:26.268Z,355
2018-07-11T14:28:34.914Z,345
2018-07-11T14:29:43.885Z,295
2018-07-11T14:30:52.477Z,270
2018-07-11T14:32:01.133Z,340
2018-07-11T14:33:10.041Z,340
2018-07-11T14:34:18.682Z,290
2018-07-11T14:35:27.340Z,245
2018-07-11T14:36:35.987Z,305
2018-07-11T14:37:44.902Z,330
2018-07-11T14:38:54.077Z,310
2018-07-11T14:40:02.729Z,285
2018-07-11T14:41:11.373Z,200
2018-07-11T14:42:20.027Z,185
2018-07-11T14:43:28.673Z,200
2018-07-11T14:44:37.323Z,170
2018-07-11T14:45:46.098Z,160
2018-07-11T14:46:54.620Z,200
2018-07-11T14:48:03.273Z,245
2018-07-11T14:49:11.927Z,270
2018-07-11T14:50:20.584Z,280
2018-07-11T14:51:29.672Z,300
2018-07-11T14:52:38.186Z,290
2018-07-11T14:53:46.835Z,300
2018-07-11T14:54:55.753Z,335
2018-07-11T14:56:04.660Z,325
2018-07-11T14:57:13.311Z,315
2018-07-11T14:58:22.335Z,295
2018-07-11T14:59:30.990Z,340
2018-07-11T15:00:39.635Z,305
2018-07-11T15:01:48.283Z,310
2018-07-11T15:02:57.192Z,370
2018-07-11T15:04:05.839Z,310
2018-07-11T15:05:14.492Z,225
2018-07-11T15:06:23.148Z,185
2018-07-11T15:07:32.064Z,180
2018-07-11T15:08:41.227Z,205
2018-07-11T15:09:49.775Z,225
2018-07-11T15:10:58.429Z,250
2018-07-11T15:12:07.075Z,190
2018-07-11T15:13:15.718Z,190
2018-07-11T15:14:24.374Z,255
2018-07-11T15:15:33.026Z,275
2018-07-11T15:16:41.672Z,260
2018-07-11T15:17:50.317Z,255
2018-07-11T15:18:58.973Z,215
2018-07-11T15:20:07.621Z,175
2018-07-11T15:21:16.274Z,175
2018-07-11T15:22:24.931Z,195
2018-07-11T15:23:33.572Z,150
2018-07-11T15:24:42.220Z,145
2018-07-11T15:25:50.878Z,155
2018-07-11T15:26:59.525Z,145
2018-07-11T15:28:08.174Z,130
2018-07-11T15:29:16.821Z,145
2018-07-11T15:30:25.766Z,160
2018-07-11T15:31:34.694Z,150
2018-07-11T15:32:43.351Z,120
2018-07-11T15:33:51.980Z,90
2018-07-11T15:35:00.627Z,85
2018-07-11T15:36:09.288Z,105
2018-07-11T15:37:17.935Z,130
2018-07-11T15:38:26.579Z,120
2018-07-11T15:39:35.221Z,95
2018-07-11T15:40:43.868Z,125
2018-07-11T15:41:52.523Z,140
2018-07-11T15:43:01.165Z,140
2018-07-11T15:44:10.076Z,140
2018-07-11T15:45:18.799Z,145
2018-07-11T15:46:27.737Z,145
2018-07-11T15:47:36.382Z,135
2018-07-11T15:48:45.033Z,130
2018-07-11T15:49:53.673Z,130
2018-07-11T15:51:02.370Z,120
2018-07-11T15:52:10.980Z,115
2018-07-11T15:53:19.629Z,115
2018-07-11T15:54:28.271Z,110
2018-07-11T15:55:36.924Z,80
2018-07-11T15:56:45.712Z,80
2018-07-11T15:57:54.235Z,85
2018-07-11T15:59:02.942Z,90
2018-07-11T16:00:11.526Z,90
2018-07-11T16:01:20.188Z,90
2018-07-11T16:02:29.087Z,95
2018-07-11T16:03:37.744Z,95
2018-07-11T16:04:46.388Z,85
2018-07-11T16:05:55.150Z,80
2018-07-11T16:07:04.074Z,85
2018-07-11T16:08:12.734Z,90